sensor_id;sensor_type;location;lat;lon;timestamp;temperature;humidity
41116;DHT22;26861;51.824;4.682;2023-12-07T00:00:51;14.40;84.10
41116;DHT22;26861;51.824;4.682;2023-12-07T00:03:17;14.60;83.90
41116;DHT22;26861;51.824;4.682;2023-12-07T00:05:43;14.50;84.10
41116;DHT22;26861;51.824;4.682;2023-12-07T00:08:09;14.50;84.40
41116;DHT22;26861;51.824;4.682;2023-12-07T00:10:36;14.50;84.90
41116;DHT22;26861;51.824;4.682;2023-12-07T00:13:01;14.50;84.50
41116;DHT22;26861;51.824;4.682;2023-12-07T00:15:27;14.60;84.40
41116;DHT22;26861;51.824;4.682;2023-12-07T00:17:53;14.50;84.20
41116;DHT22;26861;51.824;4.682;2023-12-07T00:20:19;14.40;84.20
41116;DHT22;26861;51.824;4.682;2023-12-07T00:22:45;14.50;84.60
41116;DHT22;26861;51.824;4.682;2023-12-07T00:25:11;14.40;84.20
41116;DHT22;26861;51.824;4.682;2023-12-07T00:27:37;14.30;84.10
41116;DHT22;26861;51.824;4.682;2023-12-07T00:30:03;14.40;84.20
41116;DHT22;26861;51.824;4.682;2023-12-07T00:32:29;14.40;83.00
41116;DHT22;26861;51.824;4.682;2023-12-07T00:34:55;14.40;83.60
41116;DHT22;26861;51.824;4.682;2023-12-07T00:37:21;14.40;84.00
41116;DHT22;26861;51.824;4.682;2023-12-07T00:39:47;14.40;84.30
41116;DHT22;26861;51.824;4.682;2023-12-07T00:42:13;14.30;84.20
41116;DHT22;26861;51.824;4.682;2023-12-07T00:44:42;14.40;84.40
41116;DHT22;26861;51.824;4.682;2023-12-07T00:47:07;14.40;84.60
41116;DHT22;26861;51.824;4.682;2023-12-07T00:49:33;14.30;84.20
41116;DHT22;26861;51.824;4.682;2023-12-07T00:52:02;14.30;84.40
41116;DHT22;26861;51.824;4.682;2023-12-07T00:54:28;14.30;83.20
41116;DHT22;26861;51.824;4.682;2023-12-07T00:56:54;14.30;84.00
41116;DHT22;26861;51.824;4.682;2023-12-07T00:59:20;14.30;83.80
41116;DHT22;26861;51.824;4.682;2023-12-07T01:01:46;14.30;83.40
41116;DHT22;26861;51.824;4.682;2023-12-07T01:04:12;14.30;84.30
41116;DHT22;26861;51.824;4.682;2023-12-07T01:06:38;14.20;84.30
41116;DHT22;26861;51.824;4.682;2023-12-07T01:09:04;14.40;84.10
41116;DHT22;26861;51.824;4.682;2023-12-07T01:11:30;14.30;84.20
41116;DHT22;26861;51.824;4.682;2023-12-07T01:13:56;14.30;84.20
41116;DHT22;26861;51.824;4.682;2023-12-07T01:16:22;14.20;84.30
41116;DHT22;26861;51.824;4.682;2023-12-07T01:18:48;14.30;84.00
41116;DHT22;26861;51.824;4.682;2023-12-07T01:21:14;14.20;83.50
41116;DHT22;26861;51.824;4.682;2023-12-07T01:23:40;14.20;84.00
41116;DHT22;26861;51.824;4.682;2023-12-07T01:26:06;14.20;84.00
41116;DHT22;26861;51.824;4.682;2023-12-07T01:28:32;14.30;84.30
41116;DHT22;26861;51.824;4.682;2023-12-07T01:30:59;14.20;83.90
41116;DHT22;26861;51.824;4.682;2023-12-07T01:33:24;14.20;83.90
41116;DHT22;26861;51.824;4.682;2023-12-07T01:35:50;14.10;83.60
41116;DHT22;26861;51.824;4.682;2023-12-07T01:38:15;14.20;83.30
41116;DHT22;26861;51.824;4.682;2023-12-07T01:40:41;14.10;83.80
41116;DHT22;26861;51.824;4.682;2023-12-07T01:43:07;14.20;83.80
41116;DHT22;26861;51.824;4.682;2023-12-07T01:45:32;14.20;83.80
41116;DHT22;26861;51.824;4.682;2023-12-07T01:47:58;14.20;83.80
41116;DHT22;26861;51.824;4.682;2023-12-07T01:50:25;14.20;83.80
41116;DHT22;26861;51.824;4.682;2023-12-07T01:52:55;14.10;83.80
41116;DHT22;26861;51.824;4.682;2023-12-07T01:55:22;14.10;78.70
41116;DHT22;26861;51.824;4.682;2023-12-07T01:57:48;14.00;83.60
41116;DHT22;26861;51.824;4.682;2023-12-07T02:00:15;14.10;83.80
41116;DHT22;26861;51.824;4.682;2023-12-07T02:02:41;14.10;83.40
41116;DHT22;26861;51.824;4.682;2023-12-07T02:05:09;14.00;83.10
41116;DHT22;26861;51.824;4.682;2023-12-07T02:07:35;14.00;83.90
41116;DHT22;26861;51.824;4.682;2023-12-07T02:10:01;14.10;83.70
41116;DHT22;26861;51.824;4.682;2023-12-07T02:12:27;14.00;83.50
41116;DHT22;26861;51.824;4.682;2023-12-07T02:14:55;14.00;83.90
41116;DHT22;26861;51.824;4.682;2023-12-07T02:17:23;13.80;83.70
41116;DHT22;26861;51.824;4.682;2023-12-07T02:22:39;14.00;78.40
41116;DHT22;26861;51.824;4.682;2023-12-07T02:25:08;14.00;78.80
41116;DHT22;26861;51.824;4.682;2023-12-07T02:27:38;14.00;83.20
41116;DHT22;26861;51.824;4.682;2023-12-07T02:30:05;13.90;83.80
41116;DHT22;26861;51.824;4.682;2023-12-07T02:32:30;13.90;81.30
41116;DHT22;26861;51.824;4.682;2023-12-07T02:34:56;13.90;83.40
41116;DHT22;26861;51.824;4.682;2023-12-07T02:37:22;13.90;83.90
41116;DHT22;26861;51.824;4.682;2023-12-07T02:39:48;13.90;84.10
41116;DHT22;26861;51.824;4.682;2023-12-07T02:42:14;13.90;84.10
41116;DHT22;26861;51.824;4.682;2023-12-07T02:44:42;13.80;83.90
41116;DHT22;26861;51.824;4.682;2023-12-07T02:47:08;13.90;83.80
41116;DHT22;26861;51.824;4.682;2023-12-07T02:49:34;13.90;84.00
41116;DHT22;26861;51.824;4.682;2023-12-07T02:52:00;13.80;84.10
41116;DHT22;26861;51.824;4.682;2023-12-07T02:54:26;13.80;84.00
41116;DHT22;26861;51.824;4.682;2023-12-07T02:56:51;13.80;83.90
41116;DHT22;26861;51.824;4.682;2023-12-07T02:59:16;13.80;83.90
41116;DHT22;26861;51.824;4.682;2023-12-07T03:01:42;13.70;83.10
41116;DHT22;26861;51.824;4.682;2023-12-07T03:04:07;13.80;84.00
41116;DHT22;26861;51.824;4.682;2023-12-07T03:06:33;13.80;84.10
41116;DHT22;26861;51.824;4.682;2023-12-07T03:08:58;13.90;84.00
41116;DHT22;26861;51.824;4.682;2023-12-07T03:11:24;13.80;84.00
41116;DHT22;26861;51.824;4.682;2023-12-07T03:13:49;13.90;84.10
41116;DHT22;26861;51.824;4.682;2023-12-07T03:16:15;13.70;84.00
41116;DHT22;26861;51.824;4.682;2023-12-07T03:18:41;13.70;83.80
41116;DHT22;26861;51.824;4.682;2023-12-07T03:21:07;13.80;83.80
41116;DHT22;26861;51.824;4.682;2023-12-07T03:23:33;13.70;84.20
41116;DHT22;26861;51.824;4.682;2023-12-07T03:25:59;13.80;84.30
41116;DHT22;26861;51.824;4.682;2023-12-07T03:28:24;13.80;84.10
41116;DHT22;26861;51.824;4.682;2023-12-07T03:30:50;13.70;84.50
41116;DHT22;26861;51.824;4.682;2023-12-07T03:33:15;13.50;84.00
41116;DHT22;26861;51.824;4.682;2023-12-07T03:35:41;14.00;84.50
41116;DHT22;26861;51.824;4.682;2023-12-07T03:38:06;13.80;83.70
41116;DHT22;26861;51.824;4.682;2023-12-07T03:40:32;13.70;84.50
41116;DHT22;26861;51.824;4.682;2023-12-07T03:42:58;13.70;83.80
41116;DHT22;26861;51.824;4.682;2023-12-07T03:45:24;13.70;84.40
41116;DHT22;26861;51.824;4.682;2023-12-07T03:47:50;13.90;84.30
41116;DHT22;26861;51.824;4.682;2023-12-07T03:50:15;13.70;84.30
41116;DHT22;26861;51.824;4.682;2023-12-07T03:52:41;13.70;84.40
41116;DHT22;26861;51.824;4.682;2023-12-07T03:55:07;13.60;84.10
41116;DHT22;26861;51.824;4.682;2023-12-07T03:57:33;13.60;82.50
41116;DHT22;26861;51.824;4.682;2023-12-07T03:59:59;13.60;84.30
41116;DHT22;26861;51.824;4.682;2023-12-07T04:02:25;13.60;83.70
41116;DHT22;26861;51.824;4.682;2023-12-07T04:04:51;13.60;83.70
41116;DHT22;26861;51.824;4.682;2023-12-07T04:07:17;13.60;84.20
41116;DHT22;26861;51.824;4.682;2023-12-07T04:09:42;13.60;84.40
41116;DHT22;26861;51.824;4.682;2023-12-07T04:12:08;13.60;84.10
41116;DHT22;26861;51.824;4.682;2023-12-07T04:14:34;13.70;84.00
41116;DHT22;26861;51.824;4.682;2023-12-07T04:17:00;13.60;83.80
41116;DHT22;26861;51.824;4.682;2023-12-07T04:19:25;13.60;84.10
41116;DHT22;26861;51.824;4.682;2023-12-07T04:21:51;13.50;84.00
41116;DHT22;26861;51.824;4.682;2023-12-07T04:24:17;13.60;84.40
41116;DHT22;26861;51.824;4.682;2023-12-07T04:26:43;13.60;83.80
41116;DHT22;26861;51.824;4.682;2023-12-07T04:29:08;13.60;84.00
41116;DHT22;26861;51.824;4.682;2023-12-07T04:31:34;13.50;84.20
41116;DHT22;26861;51.824;4.682;2023-12-07T04:34:01;13.50;84.10
41116;DHT22;26861;51.824;4.682;2023-12-07T04:36:26;13.50;84.30
41116;DHT22;26861;51.824;4.682;2023-12-07T04:38:52;13.50;84.20
41116;DHT22;26861;51.824;4.682;2023-12-07T04:41:18;13.40;83.90
41116;DHT22;26861;51.824;4.682;2023-12-07T04:43:44;13.50;84.20
41116;DHT22;26861;51.824;4.682;2023-12-07T04:46:10;13.40;83.80
41116;DHT22;26861;51.824;4.682;2023-12-07T04:48:36;13.40;83.90
41116;DHT22;26861;51.824;4.682;2023-12-07T04:51:02;13.50;84.40
41116;DHT22;26861;51.824;4.682;2023-12-07T04:53:27;13.60;83.90
41116;DHT22;26861;51.824;4.682;2023-12-07T04:55:52;13.50;83.80
41116;DHT22;26861;51.824;4.682;2023-12-07T04:58:18;13.40;83.20
41116;DHT22;26861;51.824;4.682;2023-12-07T05:00:44;13.50;83.80
41116;DHT22;26861;51.824;4.682;2023-12-07T05:03:09;13.50;83.70
41116;DHT22;26861;51.824;4.682;2023-12-07T05:05:35;13.50;83.80
41116;DHT22;26861;51.824;4.682;2023-12-07T05:08:01;13.60;84.20
41116;DHT22;26861;51.824;4.682;2023-12-07T05:10:27;13.50;83.90
41116;DHT22;26861;51.824;4.682;2023-12-07T05:12:52;13.50;84.00
41116;DHT22;26861;51.824;4.682;2023-12-07T05:15:18;13.50;83.90
41116;DHT22;26861;51.824;4.682;2023-12-07T05:17:44;13.50;83.70
41116;DHT22;26861;51.824;4.682;2023-12-07T05:20:09;13.60;84.60
41116;DHT22;26861;51.824;4.682;2023-12-07T05:22:37;13.50;82.50
41116;DHT22;26861;51.824;4.682;2023-12-07T05:25:03;13.50;83.90
41116;DHT22;26861;51.824;4.682;2023-12-07T05:27:30;13.40;82.70
41116;DHT22;26861;51.824;4.682;2023-12-07T05:29:56;13.50;84.20
41116;DHT22;26861;51.824;4.682;2023-12-07T05:32:22;13.50;84.50
41116;DHT22;26861;51.824;4.682;2023-12-07T05:34:47;13.50;84.10
41116;DHT22;26861;51.824;4.682;2023-12-07T05:37:13;13.50;84.60
41116;DHT22;26861;51.824;4.682;2023-12-07T05:39:38;13.50;84.20
41116;DHT22;26861;51.824;4.682;2023-12-07T05:42:05;13.40;84.50
41116;DHT22;26861;51.824;4.682;2023-12-07T05:44:31;13.70;83.90
41116;DHT22;26861;51.824;4.682;2023-12-07T05:46:57;13.40;84.50
41116;DHT22;26861;51.824;4.682;2023-12-07T05:49:23;13.50;84.50
41116;DHT22;26861;51.824;4.682;2023-12-07T05:51:49;13.30;83.90
41116;DHT22;26861;51.824;4.682;2023-12-07T05:54:15;13.40;84.10
41116;DHT22;26861;51.824;4.682;2023-12-07T05:56:41;13.40;84.70
41116;DHT22;26861;51.824;4.682;2023-12-07T05:59:06;13.40;84.70
41116;DHT22;26861;51.824;4.682;2023-12-07T06:01:32;13.30;84.10
41116;DHT22;26861;51.824;4.682;2023-12-07T06:03:58;13.50;84.70
41116;DHT22;26861;51.824;4.682;2023-12-07T06:06:23;13.40;84.50
41116;DHT22;26861;51.824;4.682;2023-12-07T06:08:49;13.50;84.70
41116;DHT22;26861;51.824;4.682;2023-12-07T06:11:14;13.40;84.70
41116;DHT22;26861;51.824;4.682;2023-12-07T06:13:40;13.40;84.80
41116;DHT22;26861;51.824;4.682;2023-12-07T06:16:06;13.40;84.80
41116;DHT22;26861;51.824;4.682;2023-12-07T06:18:32;13.40;83.90
41116;DHT22;26861;51.824;4.682;2023-12-07T06:20:57;13.60;84.80
41116;DHT22;26861;51.824;4.682;2023-12-07T06:23:23;13.30;83.20
41116;DHT22;26861;51.824;4.682;2023-12-07T06:25:48;13.30;84.40
41116;DHT22;26861;51.824;4.682;2023-12-07T06:28:14;13.20;84.20
41116;DHT22;26861;51.824;4.682;2023-12-07T06:30:40;13.30;84.80
41116;DHT22;26861;51.824;4.682;2023-12-07T06:33:06;13.40;84.50
41116;DHT22;26861;51.824;4.682;2023-12-07T06:35:32;13.20;84.50
41116;DHT22;26861;51.824;4.682;2023-12-07T06:37:58;13.30;84.40
41116;DHT22;26861;51.824;4.682;2023-12-07T06:40:24;13.30;84.90
41116;DHT22;26861;51.824;4.682;2023-12-07T06:42:49;13.30;84.40
41116;DHT22;26861;51.824;4.682;2023-12-07T06:45:15;13.20;84.60
41116;DHT22;26861;51.824;4.682;2023-12-07T06:47:40;13.20;84.20
41116;DHT22;26861;51.824;4.682;2023-12-07T06:50:08;13.30;84.50
41116;DHT22;26861;51.824;4.682;2023-12-07T06:52:38;13.20;80.30
41116;DHT22;26861;51.824;4.682;2023-12-07T06:55:04;13.20;84.70
41116;DHT22;26861;51.824;4.682;2023-12-07T06:57:30;13.20;82.50
41116;DHT22;26861;51.824;4.682;2023-12-07T06:59:56;13.20;84.30
41116;DHT22;26861;51.824;4.682;2023-12-07T07:02:21;13.00;83.60
41116;DHT22;26861;51.824;4.682;2023-12-07T07:04:48;13.10;84.10
41116;DHT22;26861;51.824;4.682;2023-12-07T07:07:14;13.00;84.10
41116;DHT22;26861;51.824;4.682;2023-12-07T07:09:40;13.10;84.10
41116;DHT22;26861;51.824;4.682;2023-12-07T07:12:05;13.10;84.20
41116;DHT22;26861;51.824;4.682;2023-12-07T07:14:31;12.90;83.60
41116;DHT22;26861;51.824;4.682;2023-12-07T07:16:56;13.20;84.40
41116;DHT22;26861;51.824;4.682;2023-12-07T07:19:22;13.10;84.30
41116;DHT22;26861;51.824;4.682;2023-12-07T07:21:47;13.00;84.10
41116;DHT22;26861;51.824;4.682;2023-12-07T07:24:14;12.90;84.00
41116;DHT22;26861;51.824;4.682;2023-12-07T07:26:39;12.90;84.20
41116;DHT22;26861;51.824;4.682;2023-12-07T07:29:05;12.90;84.10
41116;DHT22;26861;51.824;4.682;2023-12-07T07:31:31;12.90;84.50
41116;DHT22;26861;51.824;4.682;2023-12-07T07:33:57;13.00;84.40
41116;DHT22;26861;51.824;4.682;2023-12-07T07:36:22;12.90;84.50
41116;DHT22;26861;51.824;4.682;2023-12-07T07:38:48;12.90;84.40
41116;DHT22;26861;51.824;4.682;2023-12-07T07:41:13;12.90;84.40
41116;DHT22;26861;51.824;4.682;2023-12-07T07:43:39;12.80;84.00
41116;DHT22;26861;51.824;4.682;2023-12-07T07:46:06;12.80;84.30
41116;DHT22;26861;51.824;4.682;2023-12-07T07:48:32;12.90;84.40
41116;DHT22;26861;51.824;4.682;2023-12-07T07:50:57;12.80;84.20
41116;DHT22;26861;51.824;4.682;2023-12-07T07:53:24;12.80;84.10
41116;DHT22;26861;51.824;4.682;2023-12-07T07:55:49;12.60;84.10
41116;DHT22;26861;51.824;4.682;2023-12-07T07:58:15;12.80;84.10
41116;DHT22;26861;51.824;4.682;2023-12-07T08:00:41;12.80;84.00
41116;DHT22;26861;51.824;4.682;2023-12-07T08:03:07;12.70;83.80
41116;DHT22;26861;51.824;4.682;2023-12-07T08:05:33;12.70;84.20
41116;DHT22;26861;51.824;4.682;2023-12-07T08:07:59;12.80;84.40
41116;DHT22;26861;51.824;4.682;2023-12-07T08:10:25;12.80;84.50
41116;DHT22;26861;51.824;4.682;2023-12-07T08:12:51;12.80;84.30
41116;DHT22;26861;51.824;4.682;2023-12-07T08:15:17;12.70;84.40
41116;DHT22;26861;51.824;4.682;2023-12-07T08:17:42;12.70;83.70
41116;DHT22;26861;51.824;4.682;2023-12-07T08:20:08;12.70;84.30
41116;DHT22;26861;51.824;4.682;2023-12-07T08:22:54;12.70;83.90
41116;DHT22;26861;51.824;4.682;2023-12-07T08:25:20;12.70;84.20
41116;DHT22;26861;51.824;4.682;2023-12-07T08:27:46;12.60;83.70
41116;DHT22;26861;51.824;4.682;2023-12-07T08:30:13;12.70;84.00
41116;DHT22;26861;51.824;4.682;2023-12-07T08:32:38;12.50;83.90
41116;DHT22;26861;51.824;4.682;2023-12-07T08:35:05;12.70;84.30
41116;DHT22;26861;51.824;4.682;2023-12-07T08:37:31;12.60;83.50
41116;DHT22;26861;51.824;4.682;2023-12-07T08:39:58;12.60;84.70
41116;DHT22;26861;51.824;4.682;2023-12-07T08:42:24;12.70;84.40
41116;DHT22;26861;51.824;4.682;2023-12-07T08:44:52;12.60;84.60
41116;DHT22;26861;51.824;4.682;2023-12-07T08:47:18;12.60;84.80
41116;DHT22;26861;51.824;4.682;2023-12-07T08:52:12;12.50;82.30
41116;DHT22;26861;51.824;4.682;2023-12-07T08:54:37;12.60;84.60
41116;DHT22;26861;51.824;4.682;2023-12-07T08:57:03;12.60;84.60
41116;DHT22;26861;51.824;4.682;2023-12-07T08:59:29;12.70;84.30
41116;DHT22;26861;51.824;4.682;2023-12-07T09:01:58;12.50;84.00
41116;DHT22;26861;51.824;4.682;2023-12-07T09:04:24;12.50;84.60
41116;DHT22;26861;51.824;4.682;2023-12-07T09:06:50;12.60;84.50
41116;DHT22;26861;51.824;4.682;2023-12-07T09:09:16;12.50;84.40
41116;DHT22;26861;51.824;4.682;2023-12-07T09:11:42;12.50;84.80
41116;DHT22;26861;51.824;4.682;2023-12-07T09:14:09;12.60;85.00
41116;DHT22;26861;51.824;4.682;2023-12-07T09:16:35;12.60;85.10
41116;DHT22;26861;51.824;4.682;2023-12-07T09:19:01;12.60;85.20
41116;DHT22;26861;51.824;4.682;2023-12-07T09:21:27;12.60;85.10
41116;DHT22;26861;51.824;4.682;2023-12-07T09:23:53;12.60;85.10
41116;DHT22;26861;51.824;4.682;2023-12-07T09:26:19;12.60;85.20
41116;DHT22;26861;51.824;4.682;2023-12-07T09:28:46;12.70;85.30
41116;DHT22;26861;51.824;4.682;2023-12-07T09:31:12;12.70;85.30
41116;DHT22;26861;51.824;4.682;2023-12-07T09:33:38;12.70;85.20
41116;DHT22;26861;51.824;4.682;2023-12-07T09:36:04;12.50;85.20
41116;DHT22;26861;51.824;4.682;2023-12-07T09:38:35;12.70;83.80
41116;DHT22;26861;51.824;4.682;2023-12-07T09:41:01;12.70;85.30
41116;DHT22;26861;51.824;4.682;2023-12-07T09:43:27;12.80;85.50
41116;DHT22;26861;51.824;4.682;2023-12-07T09:45:54;12.80;85.00
41116;DHT22;26861;51.824;4.682;2023-12-07T09:48:19;12.70;85.50
41116;DHT22;26861;51.824;4.682;2023-12-07T09:50:46;12.70;85.70
41116;DHT22;26861;51.824;4.682;2023-12-07T09:53:12;12.80;85.60
41116;DHT22;26861;51.824;4.682;2023-12-07T09:55:38;12.80;85.40
41116;DHT22;26861;51.824;4.682;2023-12-07T09:58:04;12.90;85.60
41116;DHT22;26861;51.824;4.682;2023-12-07T10:00:30;12.80;85.50
41116;DHT22;26861;51.824;4.682;2023-12-07T10:02:56;12.80;84.90
41116;DHT22;26861;51.824;4.682;2023-12-07T10:05:21;12.60;85.20
41116;DHT22;26861;51.824;4.682;2023-12-07T10:07:48;12.80;85.30
41116;DHT22;26861;51.824;4.682;2023-12-07T10:10:14;12.90;85.60
41116;DHT22;26861;51.824;4.682;2023-12-07T10:12:53;12.90;85.60
41116;DHT22;26861;51.824;4.682;2023-12-07T10:15:19;12.80;79.90
41116;DHT22;26861;51.824;4.682;2023-12-07T10:20:12;12.90;85.40
41116;DHT22;26861;51.824;4.682;2023-12-07T10:22:38;12.80;83.90
41116;DHT22;26861;51.824;4.682;2023-12-07T10:25:04;12.80;85.60
41116;DHT22;26861;51.824;4.682;2023-12-07T10:27:29;12.80;84.70
41116;DHT22;26861;51.824;4.682;2023-12-07T10:29:58;12.90;85.20
41116;DHT22;26861;51.824;4.682;2023-12-07T10:32:24;12.80;85.50
41116;DHT22;26861;51.824;4.682;2023-12-07T10:34:49;12.70;85.10
41116;DHT22;26861;51.824;4.682;2023-12-07T10:37:15;12.80;85.20
41116;DHT22;26861;51.824;4.682;2023-12-07T10:39:40;12.80;85.20
41116;DHT22;26861;51.824;4.682;2023-12-07T10:42:07;12.90;85.20
41116;DHT22;26861;51.824;4.682;2023-12-07T10:44:33;12.90;85.70
41116;DHT22;26861;51.824;4.682;2023-12-07T10:47:01;12.90;85.70
41116;DHT22;26861;51.824;4.682;2023-12-07T10:49:26;12.90;85.50
41116;DHT22;26861;51.824;4.682;2023-12-07T10:51:58;13.00;85.60
41116;DHT22;26861;51.824;4.682;2023-12-07T10:54:25;13.00;80.10
41116;DHT22;26861;51.824;4.682;2023-12-07T10:56:52;12.90;85.50
41116;DHT22;26861;51.824;4.682;2023-12-07T10:59:18;12.90;85.00
41116;DHT22;26861;51.824;4.682;2023-12-07T11:01:44;12.90;84.70
41116;DHT22;26861;51.824;4.682;2023-12-07T11:04:11;13.00;85.40
41116;DHT22;26861;51.824;4.682;2023-12-07T11:06:37;13.00;85.20
41116;DHT22;26861;51.824;4.682;2023-12-07T11:09:07;12.90;85.40
41116;DHT22;26861;51.824;4.682;2023-12-07T11:11:44;13.00;85.60
41116;DHT22;26861;51.824;4.682;2023-12-07T11:14:11;13.00;80.30
41116;DHT22;26861;51.824;4.682;2023-12-07T11:16:41;13.00;85.60
41116;DHT22;26861;51.824;4.682;2023-12-07T11:21:50;13.10;80.40
41116;DHT22;26861;51.824;4.682;2023-12-07T11:24:16;13.00;85.30
41116;DHT22;26861;51.824;4.682;2023-12-07T11:26:42;13.00;85.20
41116;DHT22;26861;51.824;4.682;2023-12-07T11:29:10;13.00;85.40
41116;DHT22;26861;51.824;4.682;2023-12-07T11:31:36;13.10;85.00
41116;DHT22;26861;51.824;4.682;2023-12-07T11:34:06;13.10;86.00
41116;DHT22;26861;51.824;4.682;2023-12-07T11:36:33;13.10;80.60
41116;DHT22;26861;51.824;4.682;2023-12-07T11:41:51;13.10;80.70
41116;DHT22;26861;51.824;4.682;2023-12-07T11:44:19;13.20;86.30
41116;DHT22;26861;51.824;4.682;2023-12-07T11:46:45;13.20;86.00
41116;DHT22;26861;51.824;4.682;2023-12-07T11:49:11;13.10;85.60
41116;DHT22;26861;51.824;4.682;2023-12-07T11:51:37;13.20;86.20
41116;DHT22;26861;51.824;4.682;2023-12-07T11:54:04;13.30;85.90
41116;DHT22;26861;51.824;4.682;2023-12-07T11:56:30;13.20;85.80
41116;DHT22;26861;51.824;4.682;2023-12-07T11:58:56;13.30;85.80
41116;DHT22;26861;51.824;4.682;2023-12-07T12:01:24;13.30;85.30
41116;DHT22;26861;51.824;4.682;2023-12-07T12:03:50;13.30;85.90
41116;DHT22;26861;51.824;4.682;2023-12-07T12:06:16;13.40;85.80
41116;DHT22;26861;51.824;4.682;2023-12-07T12:08:43;13.20;86.00
41116;DHT22;26861;51.824;4.682;2023-12-07T12:11:09;13.50;85.60
41116;DHT22;26861;51.824;4.682;2023-12-07T12:13:35;13.40;85.40
41116;DHT22;26861;51.824;4.682;2023-12-07T12:16:02;13.50;85.60
41116;DHT22;26861;51.824;4.682;2023-12-07T12:18:28;13.50;84.70
41116;DHT22;26861;51.824;4.682;2023-12-07T12:20:54;13.60;85.40
41116;DHT22;26861;51.824;4.682;2023-12-07T12:23:20;13.50;85.50
41116;DHT22;26861;51.824;4.682;2023-12-07T12:25:46;13.50;85.70
41116;DHT22;26861;51.824;4.682;2023-12-07T12:28:14;13.50;85.90
41116;DHT22;26861;51.824;4.682;2023-12-07T12:30:40;13.50;86.00
41116;DHT22;26861;51.824;4.682;2023-12-07T12:33:07;13.50;85.90
41116;DHT22;26861;51.824;4.682;2023-12-07T12:35:33;13.50;86.30
41116;DHT22;26861;51.824;4.682;2023-12-07T12:37:59;13.70;86.10
41116;DHT22;26861;51.824;4.682;2023-12-07T12:40:27;13.40;86.00
41116;DHT22;26861;51.824;4.682;2023-12-07T12:42:54;13.60;86.20
41116;DHT22;26861;51.824;4.682;2023-12-07T12:45:20;13.40;86.40
41116;DHT22;26861;51.824;4.682;2023-12-07T12:47:47;13.20;85.90
41116;DHT22;26861;51.824;4.682;2023-12-07T12:50:31;13.50;86.80
41116;DHT22;26861;51.824;4.682;2023-12-07T12:52:58;13.50;86.80
41116;DHT22;26861;51.824;4.682;2023-12-07T12:55:28;13.50;86.80
41116;DHT22;26861;51.824;4.682;2023-12-07T12:57:55;13.50;81.40
41116;DHT22;26861;51.824;4.682;2023-12-07T13:00:21;13.60;87.10
41116;DHT22;26861;51.824;4.682;2023-12-07T13:02:47;13.50;86.30
41116;DHT22;26861;51.824;4.682;2023-12-07T13:05:13;13.60;87.00
41116;DHT22;26861;51.824;4.682;2023-12-07T13:07:39;13.50;86.90
41116;DHT22;26861;51.824;4.682;2023-12-07T13:10:05;13.60;86.90
41116;DHT22;26861;51.824;4.682;2023-12-07T13:12:34;13.50;85.50
41116;DHT22;26861;51.824;4.682;2023-12-07T13:15:01;13.60;86.60
41116;DHT22;26861;51.824;4.682;2023-12-07T13:17:27;13.50;86.70
41116;DHT22;26861;51.824;4.682;2023-12-07T13:19:52;13.60;87.10
41116;DHT22;26861;51.824;4.682;2023-12-07T13:22:20;13.70;87.00
41116;DHT22;26861;51.824;4.682;2023-12-07T13:24:47;13.60;86.90
41116;DHT22;26861;51.824;4.682;2023-12-07T13:27:13;13.70;87.10
41116;DHT22;26861;51.824;4.682;2023-12-07T13:29:41;13.60;86.20
41116;DHT22;26861;51.824;4.682;2023-12-07T13:32:07;13.70;86.80
41116;DHT22;26861;51.824;4.682;2023-12-07T13:34:33;13.60;86.80
41116;DHT22;26861;51.824;4.682;2023-12-07T13:36:59;13.70;87.00
41116;DHT22;26861;51.824;4.682;2023-12-07T13:39:25;13.60;86.90
41116;DHT22;26861;51.824;4.682;2023-12-07T13:41:52;13.60;86.80
41116;DHT22;26861;51.824;4.682;2023-12-07T13:44:19;13.80;86.80
41116;DHT22;26861;51.824;4.682;2023-12-07T13:46:44;13.70;86.90
41116;DHT22;26861;51.824;4.682;2023-12-07T13:49:11;13.70;86.80
41116;DHT22;26861;51.824;4.682;2023-12-07T13:51:37;13.60;86.30
41116;DHT22;26861;51.824;4.682;2023-12-07T13:54:03;13.70;87.00
41116;DHT22;26861;51.824;4.682;2023-12-07T13:56:29;13.80;86.50
41116;DHT22;26861;51.824;4.682;2023-12-07T13:58:55;13.70;86.50
41116;DHT22;26861;51.824;4.682;2023-12-07T14:01:21;13.70;86.10
41116;DHT22;26861;51.824;4.682;2023-12-07T14:03:47;13.70;87.00
41116;DHT22;26861;51.824;4.682;2023-12-07T14:06:21;13.80;86.40
41116;DHT22;26861;51.824;4.682;2023-12-07T14:08:47;13.70;81.50
41116;DHT22;26861;51.824;4.682;2023-12-07T14:11:13;13.80;86.60
41116;DHT22;26861;51.824;4.682;2023-12-07T14:13:39;13.80;86.40
41116;DHT22;26861;51.824;4.682;2023-12-07T14:16:05;13.70;86.20
41116;DHT22;26861;51.824;4.682;2023-12-07T14:18:34;13.70;85.60
41116;DHT22;26861;51.824;4.682;2023-12-07T14:21:00;13.70;86.60
41116;DHT22;26861;51.824;4.682;2023-12-07T14:23:26;13.70;86.60
41116;DHT22;26861;51.824;4.682;2023-12-07T14:25:52;13.70;86.40
41116;DHT22;26861;51.824;4.682;2023-12-07T14:28:22;14.10;86.50
41116;DHT22;26861;51.824;4.682;2023-12-07T14:30:47;13.70;86.30
41116;DHT22;26861;51.824;4.682;2023-12-07T14:33:13;13.70;86.40
41116;DHT22;26861;51.824;4.682;2023-12-07T14:35:38;13.70;86.50
41116;DHT22;26861;51.824;4.682;2023-12-07T14:38:04;13.70;86.30
41116;DHT22;26861;51.824;4.682;2023-12-07T14:40:29;13.70;86.60
41116;DHT22;26861;51.824;4.682;2023-12-07T14:42:55;13.70;86.60
41116;DHT22;26861;51.824;4.682;2023-12-07T14:45:20;13.80;86.70
41116;DHT22;26861;51.824;4.682;2023-12-07T14:47:46;13.70;86.10
41116;DHT22;26861;51.824;4.682;2023-12-07T14:50:12;13.70;86.00
41116;DHT22;26861;51.824;4.682;2023-12-07T14:52:38;13.80;86.00
41116;DHT22;26861;51.824;4.682;2023-12-07T14:55:04;13.70;85.80
41116;DHT22;26861;51.824;4.682;2023-12-07T14:57:30;13.80;84.50
41116;DHT22;26861;51.824;4.682;2023-12-07T14:59:56;13.80;86.10
41116;DHT22;26861;51.824;4.682;2023-12-07T15:02:24;13.80;85.40
41116;DHT22;26861;51.824;4.682;2023-12-07T15:04:49;13.80;86.20
41116;DHT22;26861;51.824;4.682;2023-12-07T15:07:15;13.70;85.80
41116;DHT22;26861;51.824;4.682;2023-12-07T15:09:41;13.70;85.70
41116;DHT22;26861;51.824;4.682;2023-12-07T15:12:07;14.10;85.60
41116;DHT22;26861;51.824;4.682;2023-12-07T15:14:33;13.80;85.80
41116;DHT22;26861;51.824;4.682;2023-12-07T15:16:59;13.70;86.00
41116;DHT22;26861;51.824;4.682;2023-12-07T15:19:25;13.80;85.70
41116;DHT22;26861;51.824;4.682;2023-12-07T15:21:51;13.70;85.90
41116;DHT22;26861;51.824;4.682;2023-12-07T15:24:17;13.70;85.80
41116;DHT22;26861;51.824;4.682;2023-12-07T15:26:43;13.70;85.70
41116;DHT22;26861;51.824;4.682;2023-12-07T15:29:09;13.70;85.90
41116;DHT22;26861;51.824;4.682;2023-12-07T15:31:34;13.80;86.00
41116;DHT22;26861;51.824;4.682;2023-12-07T15:34:00;13.80;85.80
41116;DHT22;26861;51.824;4.682;2023-12-07T15:36:25;13.80;85.60